Issue AS6.5 downloaded weather same after 2 weeks

martin0812

New member
Hello
I still have AS6.5 - it's working for me.
Noticed lately because I wanted to fly the same route with changing weather every couple of days, that I start AS6.5, push the download current button, it downloads the weather, tells me it's active now, and I find the weather has not changed for the whole flightplan after 2 weeks! That is odd!!!! Do you not update the weather anymore? Or is it because it is still AS6.5?
I looked a bit deeper into that issue and it seems almost that the weather data remain unchanged - not updated - for almost 30 days! Since beginning of 2015 I have only 2 updates for couple of tested airports!

Example:
20150203-00Z:
EDDM 140620Z 20008KT 9999 -RA BKN042 08/M00 Q1014 TEMPO 24015G30KT
OSLK 140400Z 1406/1506 16008KT CAVOK BECMG 1500/1502 16008KT 9999 SCT030 SCT100 BKN200
FL030: 214/09 (2.30) FL060: 242/49 (2.30) FL090: 243/53 (-2.30)
FL120: 256/53 (-11.00) FL180: 244/59 (-25.10) FL240: 242/68 (-37.30)
FL300: 248/78 (-49.70) FL340: 246/77 (-54.30) FL390: 240/74 (-55.30)

20150119-03Z:
EDDM 140620Z 20008KT 9999 -RA BKN042 08/M00 Q1014 TEMPO 24015G30KT
OSLK 140400Z 1406/1506 16008KT CAVOK BECMG 1500/1502 16008KT 9999 SCT030 SCT100 BKN200
FL030: 214/09 (2.30) FL060: 242/49 (2.30) FL090: 243/53 (-2.30)
FL120: 256/53 (-11.00) FL180: 244/59 (-25.10) FL240: 242/68 (-37.30)
FL300: 248/78 (-49.70) FL340: 246/77 (-54.30) FL390: 240/74 (-55.30)

20150203-00Z:
KLAX 140553Z 27004KT 10SM CLR 14/12 A3012 RMK AO2 SLP197 T01440117 10167 20139 51014 $
KLAX 140606Z 1406/1512 VRB03KT P6SM SKC FM140700 05004KT P6SM SKC FM142000 28006KT P6SM SKC FM150300 VRB04KT P6SM SKC
FL030: 085/08 (15.30) FL060: 126/10 (9.50) FL090: 106/09 (7.00)
FL120: 003/16 (-1.10) FL180: 004/31 (-14.00) FL240: 349/35 (-26.60)
FL300: 324/30 (-43.70) FL340: 281/39 (-53.00) FL390: 268/44 (-58.50)

20150119-03Z:
KLAX 140553Z 27004KT 10SM CLR 14/12 A3012 RMK AO2 SLP197 T01440117 10167 20139 51014 $
KLAX 140606Z 1406/1512 VRB03KT P6SM SKC FM140700 05004KT P6SM SKC FM142000 28006KT P6SM SKC FM150300 VRB04KT P6SM SKC
FL030: 085/08 (15.30) FL060: 126/10 (9.50) FL090: 106/09 (7.00)
FL120: 003/16 (-1.10) FL180: 004/31 (-14.00) FL240: 349/35 (-26.60)
FL300: 324/30 (-43.70) FL340: 281/39 (-53.00) FL390: 268/44 (-58.50)

Especially around winter it is disturbing as the weather is really interesting and fast changing within the week.
How can I get the real latest weather?

Martin
 

Daveo

Community Manager
Staff member
Hi Martin,

This version of Active Sky is no longer officially supported except for download links for reinstallation.

You may want to consider purchasing a newer version of Active Sky such as ASE if you are running FS9 or ASN for FSX.
 
Last edited:
Top